sensor_id;sensor_type;location;lat;lon;timestamp;pressure;altitude;pressure_sealevel;temperature;humidity
34185;BME280;20454;48.100;11.776;2023-03-19T00:02:01;95082.25;;;6.14;90.53
34185;BME280;20454;48.100;11.776;2023-03-19T00:04:26;95086.25;;;6.08;90.60
34185;BME280;20454;48.100;11.776;2023-03-19T00:06:52;95091.78;;;6.08;90.50
34185;BME280;20454;48.100;11.776;2023-03-19T00:09:19;95086.25;;;6.08;90.75
34185;BME280;20454;48.100;11.776;2023-03-19T00:11:45;95076.94;;;6.04;90.75
34185;BME280;20454;48.100;11.776;2023-03-19T00:14:12;95074.81;;;6.01;90.60
34185;BME280;20454;48.100;11.776;2023-03-19T00:16:37;95081.75;;;5.99;91.00
34185;BME280;20454;48.100;11.776;2023-03-19T00:19:03;95088.16;;;5.94;91.13
34185;BME280;20454;48.100;11.776;2023-03-19T00:21:29;95073.94;;;5.87;91.53
34185;BME280;20454;48.100;11.776;2023-03-19T00:23:55;95076.47;;;5.84;92.13
34185;BME280;20454;48.100;11.776;2023-03-19T00:26:29;95083.13;;;5.83;91.83
34185;BME280;20454;48.100;11.776;2023-03-19T00:28:55;95085.41;;;5.76;92.02
34185;BME280;20454;48.100;11.776;2023-03-19T00:31:22;95093.47;;;5.72;92.07
34185;BME280;20454;48.100;11.776;2023-03-19T00:33:48;95087.47;;;5.70;92.38
34185;BME280;20454;48.100;11.776;2023-03-19T00:36:13;95085.91;;;5.64;92.56
34185;BME280;20454;48.100;11.776;2023-03-19T00:38:41;95097.56;;;5.61;92.37
34185;BME280;20454;48.100;11.776;2023-03-19T00:41:08;95096.72;;;5.61;92.63
34185;BME280;20454;48.100;11.776;2023-03-19T00:43:33;95097.84;;;5.60;92.39
34185;BME280;20454;48.100;11.776;2023-03-19T00:45:59;95093.44;;;5.59;92.33
34185;BME280;20454;48.100;11.776;2023-03-19T00:48:25;95102.63;;;5.54;92.43
34185;BME280;20454;48.100;11.776;2023-03-19T00:50:51;95117.00;;;5.51;92.40
34185;BME280;20454;48.100;11.776;2023-03-19T00:53:17;95110.84;;;5.41;92.46
34185;BME280;20454;48.100;11.776;2023-03-19T00:55:43;95107.28;;;5.40;92.98
34185;BME280;20454;48.100;11.776;2023-03-19T00:58:09;95109.06;;;5.31;92.98
34185;BME280;20454;48.100;11.776;2023-03-19T01:00:35;95113.69;;;5.36;93.04
34185;BME280;20454;48.100;11.776;2023-03-19T01:03:02;95115.91;;;5.34;93.03
34185;BME280;20454;48.100;11.776;2023-03-19T01:05:28;95115.91;;;5.34;93.21
34185;BME280;20454;48.100;11.776;2023-03-19T01:07:54;95108.25;;;5.31;93.17
34185;BME280;20454;48.100;11.776;2023-03-19T01:10:21;95100.94;;;5.21;93.58
34185;BME280;20454;48.100;11.776;2023-03-19T01:12:48;95111.97;;;5.21;94.01
34185;BME280;20454;48.100;11.776;2023-03-19T01:15:13;95109.59;;;5.15;94.08
34185;BME280;20454;48.100;11.776;2023-03-19T01:17:39;95116.22;;;5.14;94.05
34185;BME280;20454;48.100;11.776;2023-03-19T01:20:07;95112.13;;;5.11;94.26
34185;BME280;20454;48.100;11.776;2023-03-19T01:22:40;95119.88;;;5.09;94.64
34185;BME280;20454;48.100;11.776;2023-03-19T01:25:08;95117.94;;;5.10;94.60
34185;BME280;20454;48.100;11.776;2023-03-19T01:27:34;95108.31;;;5.07;94.73
34185;BME280;20454;48.100;11.776;2023-03-19T01:30:00;95114.41;;;5.04;94.95
34185;BME280;20454;48.100;11.776;2023-03-19T01:32:26;95105.63;;;5.02;94.97
34185;BME280;20454;48.100;11.776;2023-03-19T01:34:52;95106.97;;;5.05;95.03
34185;BME280;20454;48.100;11.776;2023-03-19T01:37:18;95105.84;;;5.06;95.79
34185;BME280;20454;48.100;11.776;2023-03-19T01:39:45;95099.53;;;5.05;96.42
34185;BME280;20454;48.100;11.776;2023-03-19T01:42:10;95101.19;;;5.06;96.25
34185;BME280;20454;48.100;11.776;2023-03-19T01:44:38;95101.69;;;5.08;96.39
34185;BME280;20454;48.100;11.776;2023-03-19T01:47:05;95100.56;;;5.09;96.36
34185;BME280;20454;48.100;11.776;2023-03-19T01:49:35;95109.97;;;5.08;96.58
34185;BME280;20454;48.100;11.776;2023-03-19T01:52:02;95105.28;;;5.09;96.31
34185;BME280;20454;48.100;11.776;2023-03-19T01:54:29;95099.75;;;5.09;96.48
34185;BME280;20454;48.100;11.776;2023-03-19T01:57:04;95097.59;;;5.06;96.75
34185;BME280;20454;48.100;11.776;2023-03-19T01:59:37;95101.47;;;5.05;96.91
34185;BME280;20454;48.100;11.776;2023-03-19T02:04:39;95102.38;;;5.00;96.84
34185;BME280;20454;48.100;11.776;2023-03-19T02:07:06;95102.13;;;4.97;96.94
34185;BME280;20454;48.100;11.776;2023-03-19T02:09:32;95108.78;;;4.96;97.01
34185;BME280;20454;48.100;11.776;2023-03-19T02:11:59;95105.47;;;4.94;96.85
34185;BME280;20454;48.100;11.776;2023-03-19T02:14:26;95102.50;;;4.90;96.77
34185;BME280;20454;48.100;11.776;2023-03-19T02:16:52;95107.19;;;4.90;96.76
34185;BME280;20454;48.100;11.776;2023-03-19T02:19:30;95116.88;;;4.87;96.68
34185;BME280;20454;48.100;11.776;2023-03-19T02:22:00;95128.72;;;4.88;97.68
34185;BME280;20454;48.100;11.776;2023-03-19T02:27:22;95120.13;;;4.89;97.56
34185;BME280;20454;48.100;11.776;2023-03-19T02:29:48;95111.88;;;4.89;97.42
34185;BME280;20454;48.100;11.776;2023-03-19T02:32:14;95110.53;;;4.87;97.28
34185;BME280;20454;48.100;11.776;2023-03-19T02:34:41;95102.34;;;4.82;97.37
34185;BME280;20454;48.100;11.776;2023-03-19T02:42:15;95101.66;;;4.71;97.59
34185;BME280;20454;48.100;11.776;2023-03-19T02:44:42;95108.59;;;4.69;97.53
34185;BME280;20454;48.100;11.776;2023-03-19T02:47:07;95121.75;;;4.72;97.35
34185;BME280;20454;48.100;11.776;2023-03-19T02:49:33;95128.38;;;4.71;97.39
34185;BME280;20454;48.100;11.776;2023-03-19T02:52:00;95115.78;;;4.65;96.93
34185;BME280;20454;48.100;11.776;2023-03-19T02:54:26;95123.75;;;4.66;97.22
34185;BME280;20454;48.100;11.776;2023-03-19T02:56:52;95130.69;;;4.64;97.30
34185;BME280;20454;48.100;11.776;2023-03-19T02:59:18;95132.09;;;4.61;97.41
34185;BME280;20454;48.100;11.776;2023-03-19T07:02:23;95333.38;;;8.28;89.29
34185;BME280;20454;48.100;11.776;2023-03-19T07:04:48;95340.63;;;8.38;88.21
34185;BME280;20454;48.100;11.776;2023-03-19T07:07:15;95337.94;;;8.46;88.19
34185;BME280;20454;48.100;11.776;2023-03-19T07:09:40;95352.19;;;8.53;87.91
34185;BME280;20454;48.100;11.776;2023-03-19T07:12:06;95354.34;;;8.56;87.70
34185;BME280;20454;48.100;11.776;2023-03-19T07:14:32;95359.75;;;8.61;87.60
34185;BME280;20454;48.100;11.776;2023-03-19T07:16:58;95355.06;;;8.62;87.29
34185;BME280;20454;48.100;11.776;2023-03-19T07:19:23;95362.44;;;8.66;87.57
34185;BME280;20454;48.100;11.776;2023-03-19T07:21:49;95365.50;;;8.65;87.72
34185;BME280;20454;48.100;11.776;2023-03-19T07:24:15;95368.16;;;8.70;88.25
34185;BME280;20454;48.100;11.776;2023-03-19T07:26:40;95379.44;;;8.73;87.66
34185;BME280;20454;48.100;11.776;2023-03-19T07:29:07;95382.22;;;8.73;87.93
34185;BME280;20454;48.100;11.776;2023-03-19T07:31:33;95394.84;;;8.79;88.31
34185;BME280;20454;48.100;11.776;2023-03-19T07:33:59;95397.63;;;8.79;87.98
34185;BME280;20454;48.100;11.776;2023-03-19T07:36:24;95405.78;;;8.84;89.01
34185;BME280;20454;48.100;11.776;2023-03-19T07:38:50;95404.03;;;8.88;89.35
34185;BME280;20454;48.100;11.776;2023-03-19T07:41:16;95394.28;;;8.91;90.13
34185;BME280;20454;48.100;11.776;2023-03-19T07:43:42;95401.66;;;8.95;90.77
34185;BME280;20454;48.100;11.776;2023-03-19T07:46:08;95411.19;;;9.03;90.60
34185;BME280;20454;48.100;11.776;2023-03-19T07:48:34;95405.66;;;9.03;91.12
34185;BME280;20454;48.100;11.776;2023-03-19T07:51:00;95413.50;;;9.09;91.95
34185;BME280;20454;48.100;11.776;2023-03-19T07:53:25;95415.66;;;9.12;91.17
34185;BME280;20454;48.100;11.776;2023-03-19T07:55:51;95412.63;;;9.22;91.42
34185;BME280;20454;48.100;11.776;2023-03-19T07:58:17;95415.28;;;9.27;91.35
34185;BME280;20454;48.100;11.776;2023-03-19T11:29:16;95416.53;;;15.13;60.25
34185;BME280;20454;48.100;11.776;2023-03-19T11:31:52;95428.84;;;14.97;58.79
34185;BME280;20454;48.100;11.776;2023-03-19T11:36:58;95427.56;;;14.82;59.67
34185;BME280;20454;48.100;11.776;2023-03-19T11:39:50;95414.63;;;14.90;59.81
34185;BME280;20454;48.100;11.776;2023-03-19T11:45:36;95406.78;;;14.83;58.29
34185;BME280;20454;48.100;11.776;2023-03-19T11:48:13;95416.25;;;14.91;59.36
34185;BME280;20454;48.100;11.776;2023-03-19T11:50:59;95402.19;;;15.03;59.08
34185;BME280;20454;48.100;11.776;2023-03-19T11:53:30;95398.78;;;15.21;58.76
34185;BME280;20454;48.100;11.776;2023-03-19T11:56:07;95368.41;;;15.23;57.59
34185;BME280;20454;48.100;11.776;2023-03-19T12:04:05;95384.69;;;16.43;55.22
34185;BME280;20454;48.100;11.776;2023-03-19T12:06:53;95383.13;;;17.27;52.74
34185;BME280;20454;48.100;11.776;2023-03-19T12:12:20;95362.16;;;18.61;48.84
34185;BME280;20454;48.100;11.776;2023-03-19T12:17:49;95361.69;;;20.22;44.17
34185;BME280;20454;48.100;11.776;2023-03-19T12:20:43;95342.72;;;19.89;41.80
34185;BME280;20454;48.100;11.776;2023-03-19T12:23:35;95356.06;;;19.30;43.73
34185;BME280;20454;48.100;11.776;2023-03-19T12:26:07;95356.03;;;18.78;45.93
34185;BME280;20454;48.100;11.776;2023-03-19T12:28:41;95360.66;;;18.44;46.87
34185;BME280;20454;48.100;11.776;2023-03-19T12:39:30;95352.16;;;17.08;50.93
34185;BME280;20454;48.100;11.776;2023-03-19T12:41:58;95319.56;;;17.22;51.23
34185;BME280;20454;48.100;11.776;2023-03-19T12:44:36;95337.41;;;17.87;49.87
34185;BME280;20454;48.100;11.776;2023-03-19T12:47:25;95340.31;;;18.54;47.38
34185;BME280;20454;48.100;11.776;2023-03-19T12:49:57;95330.94;;;18.95;46.34
34185;BME280;20454;48.100;11.776;2023-03-19T12:52:47;95330.59;;;19.26;45.42
34185;BME280;20454;48.100;11.776;2023-03-19T12:55:19;95322.75;;;19.42;44.73
34185;BME280;20454;48.100;11.776;2023-03-19T12:57:47;95327.66;;;19.75;44.03
34185;BME280;20454;48.100;11.776;2023-03-19T13:00:16;95323.09;;;20.00;43.48
34185;BME280;20454;48.100;11.776;2023-03-19T13:03:11;95328.25;;;20.24;42.75
34185;BME280;20454;48.100;11.776;2023-03-19T13:10:57;95314.22;;;20.34;41.34
34185;BME280;20454;48.100;11.776;2023-03-19T16:35:44;95290.16;;;14.28;59.48
34185;BME280;20454;48.100;11.776;2023-03-19T16:38:23;95288.75;;;14.22;59.50
34185;BME280;20454;48.100;11.776;2023-03-19T16:41:16;95293.63;;;14.13;59.94
34185;BME280;20454;48.100;11.776;2023-03-19T16:43:46;95281.03;;;13.95;60.76
34185;BME280;20454;48.100;11.776;2023-03-19T16:46:13;95294.44;;;13.89;61.76
34185;BME280;20454;48.100;11.776;2023-03-19T16:48:41;95299.53;;;13.75;62.01
34185;BME280;20454;48.100;11.776;2023-03-19T16:51:18;95305.44;;;13.62;62.65
34185;BME280;20454;48.100;11.776;2023-03-19T16:53:46;95312.97;;;13.49;62.77
34185;BME280;20454;48.100;11.776;2023-03-19T16:56:14;95309.13;;;13.42;63.02
34185;BME280;20454;48.100;11.776;2023-03-19T16:58:44;95303.63;;;13.33;63.72
34185;BME280;20454;48.100;11.776;2023-03-19T17:01:23;95305.34;;;13.26;64.36
34185;BME280;20454;48.100;11.776;2023-03-19T17:03:51;95310.06;;;13.13;64.83
34185;BME280;20454;48.100;11.776;2023-03-19T17:06:17;95285.63;;;12.90;65.10
34185;BME280;20454;48.100;11.776;2023-03-19T17:08:44;95323.84;;;12.98;65.20
34185;BME280;20454;48.100;11.776;2023-03-19T17:11:33;95316.75;;;12.80;65.76
34185;BME280;20454;48.100;11.776;2023-03-19T17:14:02;95315.50;;;12.69;65.72
34185;BME280;20454;48.100;11.776;2023-03-19T17:16:30;95332.44;;;12.64;65.94
34185;BME280;20454;48.100;11.776;2023-03-19T17:18:57;95327.28;;;12.54;66.24
34185;BME280;20454;48.100;11.776;2023-03-19T17:21:29;95318.41;;;12.31;66.77
34185;BME280;20454;48.100;11.776;2023-03-19T17:24:15;95339.91;;;12.31;67.45
34185;BME280;20454;48.100;11.776;2023-03-19T17:26:45;95347.34;;;12.18;67.97
34185;BME280;20454;48.100;11.776;2023-03-19T17:29:10;95329.88;;;12.01;68.87
34185;BME280;20454;48.100;11.776;2023-03-19T17:31:36;95338.28;;;11.92;69.38
34185;BME280;20454;48.100;11.776;2023-03-19T17:34:18;95340.47;;;11.78;69.99
34185;BME280;20454;48.100;11.776;2023-03-19T17:37:13;95349.69;;;11.70;70.85
34185;BME280;20454;48.100;11.776;2023-03-19T17:39:39;95341.84;;;11.55;71.11
34185;BME280;20454;48.100;11.776;2023-03-19T17:42:22;95343.84;;;11.46;71.71
34185;BME280;20454;48.100;11.776;2023-03-19T17:44:48;95343.69;;;11.34;72.25
34185;BME280;20454;48.100;11.776;2023-03-19T17:47:15;95335.69;;;11.24;72.92
34185;BME280;20454;48.100;11.776;2023-03-19T17:49:43;95338.97;;;11.18;73.26
34185;BME280;20454;48.100;11.776;2023-03-19T17:52:17;95350.94;;;11.18;73.89
34185;BME280;20454;48.100;11.776;2023-03-19T17:54:44;95350.63;;;11.11;74.17
34185;BME280;20454;48.100;11.776;2023-03-19T17:57:12;95308.22;;;10.80;74.68
34185;BME280;20454;48.100;11.776;2023-03-19T17:59:38;95357.34;;;11.02;75.32
34185;BME280;20454;48.100;11.776;2023-03-19T19:38:27;95401.22;;;8.44;90.92
34185;BME280;20454;48.100;11.776;2023-03-19T19:40:54;95414.94;;;8.49;90.82
34185;BME280;20454;48.100;11.776;2023-03-19T19:43:25;95413.94;;;8.45;90.94
34185;BME280;20454;48.100;11.776;2023-03-19T19:45:52;95420.47;;;8.49;91.22
34185;BME280;20454;48.100;11.776;2023-03-19T19:48:27;95407.06;;;8.43;91.53
34185;BME280;20454;48.100;11.776;2023-03-19T19:50:54;95411.97;;;8.46;91.50
34185;BME280;20454;48.100;11.776;2023-03-19T19:53:21;95424.88;;;8.50;91.27
34185;BME280;20454;48.100;11.776;2023-03-19T19:55:49;95413.09;;;8.45;91.24
34185;BME280;20454;48.100;11.776;2023-03-19T19:58:23;95421.63;;;8.48;91.57
34185;BME280;20454;48.100;11.776;2023-03-19T20:00:50;95394.03;;;8.30;91.33
34185;BME280;20454;48.100;11.776;2023-03-19T20:03:24;95415.16;;;8.39;91.47
34185;BME280;20454;48.100;11.776;2023-03-19T20:05:50;95394.47;;;8.23;91.26
34185;BME280;20454;48.100;11.776;2023-03-19T20:08:17;95409.84;;;8.29;91.38
34185;BME280;20454;48.100;11.776;2023-03-19T20:10:44;95439.38;;;8.47;91.62
34185;BME280;20454;48.100;11.776;2023-03-19T20:13:28;95416.41;;;8.33;91.87
34185;BME280;20454;48.100;11.776;2023-03-19T20:15:56;95408.53;;;8.27;91.79
34185;BME280;20454;48.100;11.776;2023-03-19T20:18:23;95432.09;;;8.38;91.99
34185;BME280;20454;48.100;11.776;2023-03-19T20:20:50;95425.22;;;8.35;91.79
34185;BME280;20454;48.100;11.776;2023-03-19T20:23:16;95441.44;;;8.42;91.67
34185;BME280;20454;48.100;11.776;2023-03-19T20:25:44;95443.41;;;8.41;92.13
34185;BME280;20454;48.100;11.776;2023-03-19T20:28:23;95444.22;;;8.42;92.32
34185;BME280;20454;48.100;11.776;2023-03-19T20:30:51;95427.00;;;8.31;91.82
34185;BME280;20454;48.100;11.776;2023-03-19T20:33:21;95472.88;;;8.37;92.06
34185;BME280;20454;48.100;11.776;2023-03-19T20:35:47;95491.84;;;8.57;92.72
34185;BME280;20454;48.100;11.776;2023-03-19T20:38:13;95465.28;;;8.43;93.31
34185;BME280;20454;48.100;11.776;2023-03-19T20:40:43;95479.22;;;8.51;92.67
34185;BME280;20454;48.100;11.776;2023-03-19T20:43:23;95499.72;;;8.77;92.97
34185;BME280;20454;48.100;11.776;2023-03-19T20:45:50;95504.00;;;8.83;92.22
34185;BME280;20454;48.100;11.776;2023-03-19T20:48:16;95495.78;;;8.92;92.24
34185;BME280;20454;48.100;11.776;2023-03-19T20:50:43;95501.53;;;8.95;91.73
34185;BME280;20454;48.100;11.776;2023-03-19T20:53:09;95506.63;;;9.02;91.98
34185;BME280;20454;48.100;11.776;2023-03-19T20:55:36;95498.84;;;9.04;91.72
34185;BME280;20454;48.100;11.776;2023-03-19T20:58:08;95503.56;;;9.03;91.19
34185;BME280;20454;48.100;11.776;2023-03-19T21:00:36;95510.63;;;9.09;90.96
34185;BME280;20454;48.100;11.776;2023-03-19T21:03:02;95514.09;;;9.15;90.65
34185;BME280;20454;48.100;11.776;2023-03-19T21:05:34;95520.00;;;9.13;90.43
34185;BME280;20454;48.100;11.776;2023-03-19T21:08:04;95522.44;;;9.15;89.86
34185;BME280;20454;48.100;11.776;2023-03-19T21:10:31;95528.50;;;9.17;90.29
34185;BME280;20454;48.100;11.776;2023-03-19T21:12:59;95529.31;;;9.17;89.94
34185;BME280;20454;48.100;11.776;2023-03-19T21:15:25;95533.72;;;9.18;89.87
34185;BME280;20454;48.100;11.776;2023-03-19T21:17:52;95510.34;;;9.11;90.40
34185;BME280;20454;48.100;11.776;2023-03-19T21:20:23;95523.47;;;9.19;90.19
34185;BME280;20454;48.100;11.776;2023-03-19T21:22:53;95525.09;;;9.20;90.37
34185;BME280;20454;48.100;11.776;2023-03-19T21:25:22;95529.00;;;9.19;90.61
34185;BME280;20454;48.100;11.776;2023-03-19T21:27:52;95538.34;;;9.23;91.03
34185;BME280;20454;48.100;11.776;2023-03-19T21:30:20;95538.03;;;9.24;90.80
34185;BME280;20454;48.100;11.776;2023-03-19T21:32:46;95534.75;;;9.22;90.41
34185;BME280;20454;48.100;11.776;2023-03-19T21:35:17;95538.03;;;9.24;91.21
34185;BME280;20454;48.100;11.776;2023-03-19T21:37:43;95538.34;;;9.23;91.59
34185;BME280;20454;48.100;11.776;2023-03-19T21:40:17;95543.97;;;9.31;91.78
34185;BME280;20454;48.100;11.776;2023-03-19T21:42:47;95529.72;;;9.24;92.18
34185;BME280;20454;48.100;11.776;2023-03-19T21:45:22;95549.22;;;9.33;91.98
34185;BME280;20454;48.100;11.776;2023-03-19T21:47:48;95520.69;;;9.19;92.55
34185;BME280;20454;48.100;11.776;2023-03-19T21:50:16;95559.28;;;9.42;92.83
34185;BME280;20454;48.100;11.776;2023-03-19T21:52:42;95549.31;;;9.41;93.30
34185;BME280;20454;48.100;11.776;2023-03-19T21:55:12;95543.41;;;9.43;94.08
34185;BME280;20454;48.100;11.776;2023-03-19T21:57:39;95546.38;;;9.46;93.49
34185;BME280;20454;48.100;11.776;2023-03-19T22:00:10;95558.59;;;9.58;93.67
34185;BME280;20454;48.100;11.776;2023-03-19T22:02:39;95556.31;;;9.60;93.80
34185;BME280;20454;48.100;11.776;2023-03-19T22:05:15;95562.91;;;9.64;93.50
34185;BME280;20454;48.100;11.776;2023-03-19T22:07:41;95563.22;;;9.63;93.41
34185;BME280;20454;48.100;11.776;2023-03-19T22:10:07;95558.47;;;9.63;93.46
34185;BME280;20454;48.100;11.776;2023-03-19T22:12:33;95537.16;;;9.51;93.64
34185;BME280;20454;48.100;11.776;2023-03-19T22:15:00;95555.50;;;9.60;93.82
34185;BME280;20454;48.100;11.776;2023-03-19T22:17:25;95559.59;;;9.62;95.10
34185;BME280;20454;48.100;11.776;2023-03-19T22:19:51;95563.09;;;9.68;95.27
34185;BME280;20454;48.100;11.776;2023-03-19T22:22:17;95555.50;;;9.60;96.07
34185;BME280;20454;48.100;11.776;2023-03-19T22:24:43;95566.00;;;9.63;96.72
34185;BME280;20454;48.100;11.776;2023-03-19T22:27:12;95566.19;;;9.66;97.47
34185;BME280;20454;48.100;11.776;2023-03-19T22:29:40;95551.91;;;9.59;97.88
34185;BME280;20454;48.100;11.776;2023-03-19T22:32:12;95567.31;;;9.65;98.53
34185;BME280;20454;48.100;11.776;2023-03-19T22:34:40;95568.06;;;9.57;100.00
34185;BME280;20454;48.100;11.776;2023-03-19T22:37:28;95563.31;;;9.58;100.00
34185;BME280;20454;48.100;11.776;2023-03-19T22:39:54;95564.78;;;9.55;100.00
34185;BME280;20454;48.100;11.776;2023-03-19T22:42:22;95568.19;;;9.52;100.00
34185;BME280;20454;48.100;11.776;2023-03-19T22:44:48;95566.56;;;9.52;100.00
34185;BME280;20454;48.100;11.776;2023-03-19T22:47:23;95570.47;;;9.51;100.00
34185;BME280;20454;48.100;11.776;2023-03-19T22:49:50;95569.13;;;9.48;100.00
34185;BME280;20454;48.100;11.776;2023-03-19T22:52:16;95576.25;;;9.41;100.00
34185;BME280;20454;48.100;11.776;2023-03-19T22:54:42;95574.09;;;9.38;100.00
34185;BME280;20454;48.100;11.776;2023-03-19T22:57:11;95578.50;;;9.39;100.00
34185;BME280;20454;48.100;11.776;2023-03-19T22:59:39;95573.38;;;9.32;100.00
34185;BME280;20454;48.100;11.776;2023-03-19T23:02:09;95581.50;;;9.29;100.00
34185;BME280;20454;48.100;11.776;2023-03-19T23:04:37;95569.31;;;9.16;100.00
34185;BME280;20454;48.100;11.776;2023-03-19T23:07:03;95577.34;;;9.18;100.00
34185;BME280;20454;48.100;11.776;2023-03-19T23:09:31;95570.44;;;9.15;100.00
34185;BME280;20454;48.100;11.776;2023-03-19T23:11:58;95578.66;;;9.20;100.00
34185;BME280;20454;48.100;11.776;2023-03-19T23:14:25;95577.00;;;9.19;100.00
34185;BME280;20454;48.100;11.776;2023-03-19T23:16:52;95570.25;;;9.12;100.00
34185;BME280;20454;48.100;11.776;2023-03-19T23:19:29;95578.56;;;9.12;100.00
34185;BME280;20454;48.100;11.776;2023-03-19T23:21:57;95585.75;;;9.13;100.00
34185;BME280;20454;48.100;11.776;2023-03-19T23:24:23;95580.31;;;9.08;100.00
34185;BME280;20454;48.100;11.776;2023-03-19T23:26:52;95580.00;;;9.09;100.00
34185;BME280;20454;48.100;11.776;2023-03-19T23:29:26;95578.38;;;9.08;100.00
34185;BME280;20454;48.100;11.776;2023-03-19T23:31:53;95582.34;;;9.16;100.00
34185;BME280;20454;48.100;11.776;2023-03-19T23:34:19;95579.50;;;9.07;100.00
34185;BME280;20454;48.100;11.776;2023-03-19T23:36:46;95577.25;;;9.09;100.00
34185;BME280;20454;48.100;11.776;2023-03-19T23:39:12;95579.81;;;9.06;100.00
34185;BME280;20454;48.100;11.776;2023-03-19T23:41:48;95582.28;;;9.07;100.00
34185;BME280;20454;48.100;11.776;2023-03-19T23:44:16;95582.38;;;9.02;100.00
34185;BME280;20454;48.100;11.776;2023-03-19T23:46:43;95569.06;;;8.91;100.00
34185;BME280;20454;48.100;11.776;2023-03-19T23:49:15;95588.03;;;8.97;100.00
34185;BME280;20454;48.100;11.776;2023-03-19T23:51:41;95589.19;;;8.96;100.00
34185;BME280;20454;48.100;11.776;2023-03-19T23:54:26;95595.84;;;8.95;100.00
34185;BME280;20454;48.100;11.776;2023-03-19T23:56:54;95583.72;;;8.91;100.00
34185;BME280;20454;48.100;11.776;2023-03-19T23:59:20;95585.78;;;8.86;100.00
